Time;durP1;ratioP1;P1;durP2;ratioP2;P2;SDS_P1;SDS_P2;PMS_P1;PMS_P2;Temp;Humidity;BMP_temperature;BMP_pressure;BME280_temperature;BME280_humidity;BME280_pressure;Samples;Min_cycle;Max_cycle;Signal;HPM_P1;HPM_P2
2022/04/29 00:00:18;;;;;;;1.93;0.80;;;;;;;8.34;85.37;96337.59;1789007;80;20979;-66
2022/04/29 00:02:47;;;;;;;2.10;0.83;;;;;;;8.39;85.64;96337.58;1786818;80;21027;-66
2022/04/29 00:05:16;;;;;;;0.77;0.67;;;;;;;8.44;85.45;96331.52;1787242;80;20940;-66
2022/04/29 00:07:43;;;;;;;2.10;0.80;;;;;;;8.48;85.31;96333.69;1787248;80;20990;-66
2022/04/29 00:10:13;;;;;;;1.27;1.10;;;;;;;8.49;84.76;96338.51;1787210;80;21050;-65
2022/04/29 00:12:50;;;;;;;3.53;2.73;;;;;;;8.51;85.10;96332.82;1787126;80;21019;-66
2022/04/29 00:15:17;;;;;;;2.80;1.93;;;;;;;8.57;85.42;96336.34;1786073;80;21015;-66
2022/04/29 00:17:44;;;;;;;4.47;3.30;;;;;;;8.55;84.69;96331.52;1787137;80;21046;-66
2022/04/29 00:20:12;;;;;;;3.20;2.20;;;;;;;8.52;84.73;96339.41;1786866;80;21019;-66
2022/04/29 00:22:39;;;;;;;2.20;1.40;;;;;;;8.51;84.53;96332.82;1787025;80;21437;-66
2022/04/29 00:25:08;;;;;;;2.47;1.83;;;;;;;8.50;84.67;96333.70;1787088;80;21070;-66
2022/04/29 00:27:35;;;;;;;2.47;2.00;;;;;;;8.53;84.73;96334.58;1787088;80;20999;-66
2022/04/29 00:30:05;;;;;;;2.50;1.67;;;;;;;8.59;85.01;96329.34;1786778;80;21019;-66
2022/04/29 00:32:31;;;;;;;2.07;1.67;;;;;;;8.61;84.52;96324.06;1787105;80;20983;-66
2022/04/29 00:34:58;;;;;;;1.97;1.60;;;;;;;8.55;84.37;96323.62;1787252;80;21054;-66
2022/04/29 00:37:25;;;;;;;2.03;1.70;;;;;;;8.66;85.04;96327.57;1787232;80;21011;-66
2022/04/29 00:39:52;;;;;;;3.23;1.30;;;;;;;8.64;84.43;96328.91;1787117;80;21433;-66
2022/04/29 00:42:24;;;;;;;1.87;1.67;;;;;;;8.55;83.81;96327.57;1787264;80;21003;-66
2022/04/29 00:44:51;;;;;;;2.00;1.80;;;;;;;8.42;84.52;96328.44;1787082;80;21540;-66
2022/04/29 00:47:21;;;;;;;4.70;1.77;;;;;;;8.31;85.15;96327.49;1787345;80;20995;-66
2022/04/29 00:49:49;;;;;;;2.43;1.87;;;;;;;8.28;84.61;96326.17;1787198;80;20995;-66
2022/04/29 00:52:19;;;;;;;2.97;2.17;;;;;;;8.30;85.27;96333.19;1787058;80;21006;-66
2022/04/29 00:54:58;;;;;;;3.13;2.83;;;;;;;8.30;85.31;96325.30;1787075;80;21027;-66
2022/04/29 00:57:33;;;;;;;1.73;1.63;;;;;;;8.31;85.13;96327.49;1787008;80;21011;-66
2022/04/29 01:00:09;;;;;;;4.03;2.70;;;;;;;8.23;85.22;96326.16;1788930;80;21501;-66
2022/04/29 01:02:41;;;;;;;4.60;2.40;;;;;;;8.21;85.41;96323.96;1795440;80;21041;-66
2022/04/29 01:05:12;;;;;;;3.43;1.80;;;;;;;8.15;85.24;96317.39;1795317;80;21042;-66
2022/04/29 01:07:42;;;;;;;3.27;2.60;;;;;;;8.08;84.81;96307.28;1795475;80;21035;-66
2022/04/29 01:10:12;;;;;;;5.27;2.70;;;;;;;7.96;86.18;96323.91;1795443;80;20979;-66
2022/04/29 01:12:42;;;;;;;3.03;2.43;;;;;;;7.92;86.57;96322.58;1795277;80;20986;-66
2022/04/29 01:15:13;;;;;;;3.13;2.43;;;;;;;7.88;86.80;96319.48;1764364;80;21011;-66
2022/04/29 01:17:43;;;;;;;7.23;2.40;;;;;;;7.83;85.95;96308.09;1795351;80;20967;-65
2022/04/29 01:20:14;;;;;;;5.40;2.53;;;;;;;7.86;86.28;96314.66;1795420;80;21503;-66
2022/04/29 01:22:43;;;;;;;3.17;2.67;;;;;;;7.87;86.66;96312.49;1764540;80;21002;-66
2022/04/29 01:25:11;;;;;;;2.70;2.03;;;;;;;7.92;86.96;96310.31;1795308;80;21009;-65
2022/04/29 01:27:39;;;;;;;2.50;2.23;;;;;;;7.96;86.88;96307.25;1795038;80;21451;-66
2022/04/29 01:30:11;;;;;;;3.90;2.70;;;;;;;7.96;86.44;96316.03;1795581;80;20978;-66
2022/04/29 01:32:40;;;;;;;2.83;2.33;;;;;;;7.97;86.59;96314.27;1795326;80;20987;-66
2022/04/29 01:35:10;;;;;;;2.70;2.50;;;;;;;8.01;86.96;96302.47;1795397;80;21531;-66
2022/04/29 01:37:38;;;;;;;5.67;2.50;;;;;;;8.05;86.41;96298.53;1795525;80;21018;-66
2022/04/29 01:40:09;;;;;;;2.70;2.20;;;;;;;8.07;86.56;96301.60;1795303;80;21010;-66
2022/04/29 01:42:37;;;;;;;2.40;2.10;;;;;;;8.12;86.64;96299.86;1795344;80;21025;-66
2022/04/29 01:45:05;;;;;;;2.27;1.70;;;;;;;8.12;86.07;96295.91;1795427;80;21451;-66
2022/04/29 01:47:34;;;;;;;2.23;1.97;;;;;;;8.09;85.95;96298.95;1792578;80;21134;-66
2022/04/29 01:50:05;;;;;;;3.57;2.40;;;;;;;8.06;85.77;96302.45;1793043;80;21097;-65
2022/04/29 01:52:34;;;;;;;3.87;2.27;;;;;;;8.12;86.15;96304.25;1795461;80;21062;-67
2022/04/29 01:55:00;;;;;;;2.00;1.80;;;;;;;8.12;86.23;96303.80;1795569;80;21054;-66
2022/04/29 01:57:29;;;;;;;3.80;1.90;;;;;;;8.12;85.83;96300.30;1795115;80;21540;-66
2022/04/29 01:59:55;;;;;;;2.13;1.50;;;;;;;8.13;85.61;96309.93;1795465;80;21054;-66
2022/04/29 02:02:25;;;;;;;2.67;1.20;;;;;;;8.11;85.84;96302.03;1790863;80;20975;-66
2022/04/29 02:04:51;;;;;;;3.20;1.33;;;;;;;8.17;85.77;96307.31;1795391;80;21497;-66
2022/04/29 02:07:19;;;;;;;4.13;1.10;;;;;;;8.13;85.35;96304.67;1795078;80;20995;-66
2022/04/29 02:09:47;;;;;;;3.57;1.23;;;;;;;8.17;85.92;96312.58;1795428;80;20999;-66
2022/04/29 02:12:15;;;;;;;2.70;1.10;;;;;;;8.22;85.84;96303.39;1795228;80;21022;-66
2022/04/29 02:14:58;;;;;;;1.57;1.17;;;;;;;8.20;85.52;96303.38;1795459;80;21026;-66
2022/04/29 02:17:30;;;;;;;2.65;1.80;;;;;;;8.26;85.82;96303.81;1794369;80;21002;-66
2022/04/29 02:19:56;;;;;;;3.97;2.30;;;;;;;8.33;85.58;96300.33;1795422;80;21492;-66
2022/04/29 02:22:23;;;;;;;2.63;1.37;;;;;;;8.33;85.54;96296.38;1795472;80;21074;-66
2022/04/29 02:24:50;;;;;;;4.63;1.60;;;;;;;8.28;84.93;96303.39;1795649;80;21034;-66
2022/04/29 02:27:16;;;;;;;2.27;1.67;;;;;;;8.21;85.01;96301.62;1795616;80;20974;-66
2022/04/29 02:29:43;;;;;;;2.37;1.50;;;;;;;8.22;85.49;96302.08;1795520;80;21006;-66
2022/04/29 02:32:12;;;;;;;2.27;1.50;;;;;;;8.23;85.28;96306.00;1793977;80;21046;-66
2022/04/29 02:34:40;;;;;;;3.83;2.50;;;;;;;8.12;84.40;96303.80;1795366;80;21054;-66
2022/04/29 02:37:08;;;;;;;6.53;2.03;;;;;;;8.06;84.58;96301.14;1795703;80;21007;-66
2022/04/29 02:39:35;;;;;;;4.17;1.80;;;;;;;7.99;84.50;96308.59;1795630;80;20990;-65
2022/04/29 02:42:03;;;;;;;4.67;2.10;;;;;;;7.87;84.18;96312.49;1764456;80;20998;-66
2022/04/29 02:44:29;;;;;;;5.70;1.90;;;;;;;7.71;84.14;96315.06;1795704;80;20975;-66
2022/04/29 02:47:08;;;;;;;1.30;1.10;;;;;;;7.62;84.40;96315.45;1795267;80;21011;-66
2022/04/29 02:49:39;;;;;;;2.10;1.27;;;;;;;7.48;84.05;96320.63;1795103;80;21077;-66
2022/04/29 02:52:09;;;;;;;2.27;1.40;;;;;;;7.36;84.42;96321.46;1795726;80;21018;-66
2022/04/29 02:54:36;;;;;;;3.13;1.40;;;;;;;7.23;84.18;96318.30;1795567;80;21061;-66
2022/04/29 02:57:05;;;;;;;1.60;1.50;;;;;;;7.15;84.52;96323.06;1795443;80;21039;-65
2022/04/29 02:59:34;;;;;;;1.33;1.13;;;;;;;7.11;84.65;96329.18;1795153;80;21023;-66
2022/04/29 03:02:01;;;;;;;1.30;1.10;;;;;;;7.04;84.65;96323.88;1795359;80;21082;-66
2022/04/29 03:04:28;;;;;;;2.33;2.07;;;;;;;6.93;84.21;96321.19;1795398;80;21039;-66
2022/04/29 03:06:55;;;;;;;1.87;1.30;;;;;;;6.85;84.37;96320.23;1795788;80;20998;-66
2022/04/29 03:09:22;;;;;;;1.57;0.90;;;;;;;6.77;84.42;96317.98;1795743;80;20982;-66
2022/04/29 03:11:49;;;;;;;2.33;1.20;;;;;;;6.70;84.62;96322.30;1795040;80;21007;-66
2022/04/29 03:14:17;;;;;;;1.83;1.23;;;;;;;6.59;84.75;96327.90;1795475;80;21022;-66
2022/04/29 03:16:43;;;;;;;2.83;1.33;;;;;;;6.53;84.40;96337.00;1795473;80;20963;-68
2022/04/29 03:19:10;;;;;;;4.07;1.20;;;;;;;6.50;84.79;96325.66;1795244;80;21014;-66
2022/04/29 03:21:38;;;;;;;2.97;1.27;;;;;;;6.47;84.62;96329.97;1795536;80;21469;-66
2022/04/29 03:24:06;;;;;;;3.03;1.80;;;;;;;6.48;85.01;96333.93;1764502;80;21587;-66
2022/04/29 03:26:33;;;;;;;2.07;1.63;;;;;;;6.51;85.07;96325.22;1764874;80;21014;-66
2022/04/29 03:28:59;;;;;;;2.87;1.50;;;;;;;6.52;85.46;96331.33;1795356;80;20959;-66
2022/04/29 03:31:26;;;;;;;1.67;1.43;;;;;;;6.52;85.38;96332.20;1795318;80;21528;-66
2022/04/29 03:34:11;;;;;;;1.93;1.33;;;;;;;6.49;85.35;96329.12;1795518;80;20991;-65
2022/04/29 03:36:38;;;;;;;3.40;2.30;;;;;;;6.51;85.75;96329.14;1795236;80;21057;-66
2022/04/29 03:39:05;;;;;;;3.50;1.70;;;;;;;6.58;85.87;96332.71;1795342;80;21525;-66
2022/04/29 03:41:33;;;;;;;2.97;1.53;;;;;;;6.56;85.46;96335.31;1795466;80;20982;-66
2022/04/29 03:44:01;;;;;;;3.07;1.63;;;;;;;6.57;85.34;96333.12;1795174;80;21054;-66
2022/04/29 03:46:33;;;;;;;3.77;1.63;;;;;;;6.61;85.53;96337.53;1793633;80;21006;-66
2022/04/29 03:51:54;;;;;;;5.17;1.47;;;;;;;6.68;85.24;96333.23;1794985;80;20983;-66
2022/04/29 03:54:21;;;;;;;2.40;1.80;;;;;;;6.64;85.27;96339.30;1795569;80;21006;-66
2022/04/29 03:56:53;;;;;;;4.80;2.77;;;;;;;6.72;86.08;96339.80;1795744;80;21010;-66
2022/04/29 03:59:20;;;;;;;3.63;3.27;;;;;;;6.89;86.43;96336.02;1795361;80;20999;-66
2022/04/29 04:01:49;;;;;;;3.73;2.90;;;;;;;6.99;85.94;96343.96;1795405;80;21575;-66
2022/04/29 04:04:16;;;;;;;3.80;3.00;;;;;;;7.00;85.91;96336.52;1795443;80;21022;-66
2022/04/29 04:06:50;;;;;;;7.10;3.83;;;;;;;7.12;86.29;96341.42;1795117;80;21006;-66
2022/04/29 04:09:22;;;;;;;7.03;3.90;;;;;;;7.26;86.25;96347.22;1795275;80;21118;-66
2022/04/29 04:11:50;;;;;;;5.97;3.93;;;;;;;7.41;86.14;96343.77;1764597;80;21011;-66
2022/04/29 04:14:19;;;;;;;5.70;2.90;;;;;;;7.48;85.48;96346.88;1790408;80;21006;-66
2022/04/29 04:16:48;;;;;;;3.83;2.23;;;;;;;7.57;85.92;96345.63;1795585;80;21503;-66
2022/04/29 04:19:16;;;;;;;3.23;2.53;;;;;;;7.70;85.42;96346.56;1795608;80;21007;-66
2022/04/29 04:21:43;;;;;;;4.20;2.83;;;;;;;7.76;85.11;96351.42;1795363;80;20994;-66
2022/04/29 04:24:11;;;;;;;3.73;3.10;;;;;;;7.91;85.59;96349.30;1795464;80;21345;-66
2022/04/29 04:26:38;;;;;;;4.97;3.37;;;;;;;8.02;85.10;96353.27;1795407;80;21022;-66
2022/04/29 04:29:07;;;;;;;5.20;2.57;;;;;;;8.09;84.53;96351.52;1795343;80;21023;-66
2022/04/29 04:31:41;;;;;;;3.30;2.60;;;;;;;8.02;83.82;96352.83;1795127;80;20979;-66
2022/04/29 04:36:54;;;;;;;4.13;2.70;;;;;;;8.09;85.22;96356.38;1795326;80;21003;-66
2022/04/29 04:39:22;;;;;;;2.73;2.17;;;;;;;8.13;85.65;96362.05;1795441;80;21010;-66
2022/04/29 04:41:50;;;;;;;2.87;2.33;;;;;;;8.13;84.78;96359.43;1795435;80;21516;-66
2022/04/29 04:44:19;;;;;;;3.67;2.80;;;;;;;8.11;84.78;96363.80;1794612;80;21046;-66
2022/04/29 04:46:46;;;;;;;4.00;3.30;;;;;;;8.20;85.10;96363.84;1795503;80;21006;-66
2022/04/29 04:49:15;;;;;;;4.30;3.40;;;;;;;8.25;84.56;96367.80;1793339;80;21055;-66
2022/04/29 04:51:53;;;;;;;4.53;2.97;;;;;;;8.24;84.60;96369.56;1794390;80;21038;-66
2022/04/29 04:54:20;;;;;;;3.63;3.00;;;;;;;8.35;84.87;96376.59;1795414;80;21037;-65
2022/04/29 04:56:46;;;;;;;4.17;2.70;;;;;;;8.41;84.97;96377.95;1795399;80;21046;-66
2022/04/29 04:59:13;;;;;;;3.87;2.73;;;;;;;8.51;84.86;96377.09;1795503;80;21003;-66
2022/04/29 05:01:41;;;;;;;4.17;3.37;;;;;;;8.55;84.25;96380.17;1788446;80;21007;-66
2022/04/29 05:04:18;;;;;;;4.63;3.80;;;;;;;8.59;84.31;96374.47;1780774;80;21058;-66
2022/04/29 05:06:56;;;;;;;6.80;4.03;;;;;;;8.63;84.05;96378.88;1782344;80;21010;-66
2022/04/29 05:09:23;;;;;;;8.80;5.30;;;;;;;8.62;83.87;96375.38;1787150;80;20992;-66
2022/04/29 05:11:50;;;;;;;9.07;5.10;;;;;;;8.62;83.62;96375.38;1787036;80;21013;-66
2022/04/29 05:14:35;;;;;;;8.07;5.10;;;;;;;8.58;83.26;96368.34;1786539;80;21070;-66
2022/04/29 05:17:03;;;;;;;7.33;4.33;;;;;;;8.54;83.43;96360.02;1786849;80;20999;-66
2022/04/29 05:19:44;;;;;;;7.10;4.27;;;;;;;8.49;83.51;96366.99;1781304;80;21142;-66
2022/04/29 05:22:11;;;;;;;7.03;4.80;;;;;;;8.46;83.70;96364.36;1787173;80;21003;-66
2022/04/29 05:24:38;;;;;;;4.83;3.93;;;;;;;8.45;83.76;96360.87;1787030;80;21042;-66
2022/04/29 05:27:24;;;;;;;4.77;3.77;;;;;;;8.46;83.88;96363.05;1787051;80;21075;-66
2022/04/29 05:30:10;;;;;;;4.47;3.40;;;;;;;8.49;84.26;96365.68;1786824;80;21011;-66
2022/04/29 05:32:54;;;;;;;3.27;2.87;;;;;;;8.53;84.49;96370.08;1781568;80;21047;-66
2022/04/29 05:35:41;;;;;;;3.40;2.90;;;;;;;8.59;84.38;96367.89;1787006;80;21040;-66
2022/04/29 05:38:13;;;;;;;3.47;2.75;;;;;;;8.69;84.38;96371.42;1782125;80;21536;-66
2022/04/29 05:43:28;;;;;;;2.90;2.60;;;;;;;8.84;83.57;96371.43;1787171;80;21019;-66
2022/04/29 05:45:55;;;;;;;3.13;2.80;;;;;;;8.92;83.72;96364.44;1787019;80;20986;-66
2022/04/29 05:48:22;;;;;;;5.60;3.00;;;;;;;8.99;83.53;96365.30;1787136;80;21035;-66
2022/04/29 05:50:49;;;;;;;6.37;4.30;;;;;;;9.09;83.65;96367.92;1786781;80;21011;-66
2022/04/29 05:53:16;;;;;;;6.27;5.00;;;;;;;9.17;83.07;96377.58;1787137;80;20990;-66
2022/04/29 05:55:44;;;;;;;4.00;3.20;;;;;;;9.33;83.82;96373.20;1786789;80;21015;-66
2022/04/29 05:58:11;;;;;;;4.63;3.47;;;;;;;9.50;83.54;96374.05;1786557;80;21106;-66
2022/04/29 06:00:39;;;;;;;4.40;3.40;;;;;;;9.68;83.67;96378.39;1787010;80;21533;-66
2022/04/29 06:03:06;;;;;;;5.60;3.10;;;;;;;9.88;83.04;96378.34;1754415;80;20971;-66
2022/04/29 06:05:33;;;;;;;3.77;2.65;;;;;;;10.01;82.55;96369.49;1787123;80;21484;-66
2022/04/29 06:08:00;;;;;;;7.25;2.42;;;;;;;10.14;81.79;96376.46;1787045;80;21011;-66
2022/04/29 06:10:32;;;;;;;2.08;1.67;;;;;;;10.26;79.30;96375.98;1785640;80;21067;-66
2022/04/29 06:12:58;;;;;;;3.55;1.57;;;;;;;10.49;79.88;96365.34;1780056;80;20987;-66
2022/04/29 06:15:27;;;;;;;1.22;1.12;;;;;;;10.72;78.86;96369.16;1787056;80;20999;-66
2022/04/29 06:17:59;;;;;;;86.65;37.35;;;;;;;10.88;76.96;96374.73;1784139;80;21015;-66
2022/04/29 06:20:44;;;;;;;7.12;6.42;;;;;;;11.04;75.81;96371.11;1787223;80;20992;-66
2022/04/29 06:23:21;;;;;;;2.60;2.20;;;;;;;11.05;70.53;96378.13;1753058;80;21541;-66
2022/04/29 06:25:48;;;;;;;1.55;1.17;;;;;;;11.18;70.74;96377.59;1787271;80;20975;-66
2022/04/29 06:28:15;;;;;;;1.10;1.00;;;;;;;11.32;72.25;96380.13;1786989;80;21011;-66
2022/04/29 06:30:42;;;;;;;5.78;4.65;;;;;;;11.48;73.18;96379.53;1787177;80;20986;-66
2022/04/29 06:33:13;;;;;;;2.47;1.20;;;;;;;11.43;69.24;96378.24;1784231;80;20980;-68
2022/04/29 06:35:42;;;;;;;2.40;1.00;;;;;;;11.24;68.38;96384.16;1785496;80;21027;-66
2022/04/29 06:38:11;;;;;;;1.22;1.00;;;;;;;11.05;66.33;96382.55;1787122;80;21003;-66
2022/04/29 06:40:58;;;;;;;1.60;1.50;;;;;;;11.03;68.38;96376.39;1786951;80;21413;-66
2022/04/29 06:43:33;;;;;;;4.00;3.60;;;;;;;11.15;69.38;96377.62;1786579;80;21063;-66
2022/04/29 06:46:04;;;;;;;1.37;1.27;;;;;;;11.30;68.78;96379.25;1729109;80;21433;-66
2022/04/29 06:48:49;;;;;;;5.12;1.30;;;;;;;11.48;69.17;96383.49;1787001;80;20999;-66
2022/04/29 06:51:34;;;;;;;1.70;1.60;;;;;;;11.53;67.54;96379.03;1787020;80;20995;-66
2022/04/29 06:54:03;;;;;;;1.10;1.00;;;;;;;11.67;68.66;96381.56;1785518;80;20998;-66
2022/04/29 06:56:32;;;;;;;12.00;10.90;;;;;;;11.78;67.40;96378.80;1786533;80;20983;-66
2022/04/29 06:58:59;;;;;;;13.55;12.28;;;;;;;11.88;68.04;96377.83;1786864;80;21034;-66
2022/04/29 07:01:27;;;;;;;3.27;2.98;;;;;;;11.94;68.32;96376.42;1786865;80;21019;-66
2022/04/29 07:03:54;;;;;;;4.45;3.55;;;;;;;11.98;66.43;96374.64;1786751;80;21082;-66
2022/04/29 07:06:22;;;;;;;1.95;1.20;;;;;;;11.97;66.55;96376.41;1787148;80;20991;-66
2022/04/29 07:08:50;;;;;;;1.10;0.80;;;;;;;12.06;66.53;96377.61;1786985;80;21011;-66
2022/04/29 07:11:34;;;;;;;0.80;0.80;;;;;;;12.11;66.02;96377.56;1787299;80;21472;-66
2022/04/29 07:14:05;;;;;;;0.62;0.62;;;;;;;12.23;66.51;96375.22;1786464;80;21535;-66
2022/04/29 07:16:33;;;;;;;0.70;0.70;;;;;;;12.29;64.99;96388.36;1785913;80;20998;-66
2022/04/29 07:19:03;;;;;;;0.90;0.80;;;;;;;12.27;64.74;96384.43;1787139;80;21010;-66
2022/04/29 07:21:30;;;;;;;0.85;0.70;;;;;;;12.33;65.19;96393.60;1787343;80;21007;-66
2022/04/29 07:23:59;;;;;;;1.17;1.00;;;;;;;12.42;64.32;96375.84;1787055;80;20979;-66
2022/04/29 07:26:27;;;;;;;1.98;0.98;;;;;;;12.52;64.35;96382.34;1787228;80;21023;-66
2022/04/29 07:28:54;;;;;;;1.10;1.00;;;;;;;12.55;63.91;96384.94;1787051;80;21023;-66
2022/04/29 07:31:22;;;;;;;0.80;0.80;;;;;;;12.65;64.75;96384.79;1787148;80;21035;-66
2022/04/29 07:34:03;;;;;;;0.85;0.62;;;;;;;12.66;63.33;96384.78;1782565;80;20971;-66
2022/04/29 07:42:19;;;;;;;1.10;0.57;;;;;;;12.85;64.23;96389.38;1787340;80;20964;-66
2022/04/29 07:44:46;;;;;;;0.60;0.60;;;;;;;13.02;64.55;96384.27;1787020;80;20986;-66
2022/04/29 07:47:14;;;;;;;0.93;0.82;;;;;;;13.03;62.59;96384.25;1787169;80;20975;-66
2022/04/29 07:49:46;;;;;;;2.67;0.60;;;;;;;13.10;63.41;96391.63;1785036;80;21783;-64
2022/04/29 07:52:14;;;;;;;1.25;0.60;;;;;;;13.14;61.80;96390.23;1786293;80;21014;-64
2022/04/29 07:54:41;;;;;;;0.57;0.53;;;;;;;13.20;62.86;96389.26;1787331;80;21010;-64
2022/04/29 07:57:08;;;;;;;0.80;0.80;;;;;;;13.31;61.39;96382.52;1786891;80;21015;-64
2022/04/29 07:59:35;;;;;;;1.52;0.80;;;;;;;13.42;62.75;96391.14;1787043;80;20975;-64
2022/04/29 08:02:10;;;;;;;1.15;0.65;;;;;;;13.68;62.29;96388.03;1736362;81;21022;-64
2022/04/29 08:04:36;;;;;;;0.70;0.70;;;;;;;13.85;60.42;96391.25;1755920;82;21524;-65
2022/04/29 08:07:04;;;;;;;0.70;0.70;;;;;;;14.02;62.30;96382.98;1755714;81;21066;-64
2022/04/29 08:09:32;;;;;;;0.80;0.80;;;;;;;14.00;59.97;96378.14;1755948;81;21453;-64
2022/04/29 08:11:59;;;;;;;2.30;0.75;;;;;;;14.09;59.63;96373.59;1755877;81;21007;-64
2022/04/29 08:14:27;;;;;;;1.67;0.90;;;;;;;13.87;60.31;96384.59;1695974;82;21034;-64
2022/04/29 08:17:13;;;;;;;1.55;0.90;;;;;;;13.75;60.19;96379.06;1755749;81;21493;-64
2022/04/29 08:19:48;;;;;;;1.00;0.90;;;;;;;13.85;59.67;96372.68;1755997;81;21062;-64
2022/04/29 08:22:21;;;;;;;0.70;0.70;;;;;;;13.57;58.81;96378.95;1731602;82;21086;-64
2022/04/29 08:24:48;;;;;;;0.80;0.80;;;;;;;13.46;59.75;96371.64;1755988;81;21002;-64
2022/04/29 08:27:15;;;;;;;1.77;0.68;;;;;;;13.69;60.96;96373.88;1755841;82;21015;-64
2022/04/29 08:29:42;;;;;;;0.80;0.50;;;;;;;13.70;60.50;96370.77;1755854;81;20974;-64
2022/04/29 08:32:09;;;;;;;0.70;0.70;;;;;;;13.63;59.91;96370.00;1755923;81;21054;-64
2022/04/29 08:34:38;;;;;;;2.20;1.17;;;;;;;13.76;60.70;96370.68;1755574;82;20998;-64
2022/04/29 08:37:05;;;;;;;0.68;0.68;;;;;;;14.04;59.30;96367.91;1755797;81;21021;-64
2022/04/29 08:39:34;;;;;;;0.80;0.80;;;;;;;14.34;59.17;96366.86;1755372;82;21030;-65
2022/04/29 08:42:03;;;;;;;2.33;2.12;;;;;;;14.39;59.23;96368.97;1751170;81;21042;-64
2022/04/29 08:44:31;;;;;;;3.77;1.87;;;;;;;14.60;58.96;96360.15;1755807;82;20955;-64
2022/04/29 08:47:00;;;;;;;1.15;1.00;;;;;;;14.66;56.97;96356.88;1748293;82;21524;-64
2022/04/29 08:49:34;;;;;;;3.10;1.07;;;;;;;14.59;57.67;96352.64;1756100;81;21047;-64
2022/04/29 08:52:01;;;;;;;1.45;0.82;;;;;;;14.22;58.78;96361.80;1755937;81;20987;-64
2022/04/29 09:00:08;;;;;;;0.60;0.60;;;;;;;14.49;59.34;96353.26;1755793;82;21003;-64
2022/04/29 09:02:40;;;;;;;0.80;0.80;;;;;;;14.55;59.39;96360.70;1762010;81;20999;-64
2022/04/29 09:05:10;;;;;;;2.55;2.35;;;;;;;15.10;57.05;96351.00;1766510;81;21021;-64
2022/04/29 09:08:04;;;;;;;28.42;25.62;;;;;;;15.10;57.05;96351.00;1765939;81;21077;-64
2022/04/29 09:10:36;;;;;;;1.70;1.60;;;;;;;15.28;53.28;96332.39;1765093;81;21062;-64
2022/04/29 09:13:19;;;;;;;1.40;0.93;;;;;;;15.46;54.69;96336.82;1766297;81;21540;-64
2022/04/29 09:15:50;;;;;;;0.80;0.80;;;;;;;15.46;54.69;96336.82;1766213;81;21164;-64
2022/04/29 09:18:34;;;;;;;0.60;0.60;;;;;;;15.74;56.07;96340.52;1764726;81;21524;-64
2022/04/29 09:21:11;;;;;;;0.70;0.70;;;;;;;15.82;54.32;96332.80;1765847;81;21007;-64
2022/04/29 09:23:43;;;;;;;0.60;0.60;;;;;;;15.72;53.90;96337.48;1766415;81;20979;-64
2022/04/29 09:26:41;;;;;;;0.70;0.70;;;;;;;15.74;51.93;96336.99;1706678;81;21067;-64
2022/04/29 09:29:20;;;;;;;0.90;0.70;;;;;;;15.65;52.92;96337.20;1762163;81;21488;-65
2022/04/29 09:31:56;;;;;;;0.50;0.50;;;;;;;16.03;56.97;96335.30;1763453;81;21023;-64
2022/04/29 09:34:53;;;;;;;1.85;0.40;;;;;;;16.25;53.80;96331.58;1720112;81;20978;-64
2022/04/29 09:37:23;;;;;;;0.62;0.62;;;;;;;16.30;52.41;96329.19;1766123;81;20979;-64
2022/04/29 09:40:05;;;;;;;1.30;0.60;;;;;;;16.34;52.13;96324.20;1766265;81;21437;-64
2022/04/29 09:42:45;;;;;;;0.85;0.80;;;;;;;16.36;53.45;96329.49;1766590;81;20986;-64
2022/04/29 09:45:17;;;;;;;0.72;0.70;;;;;;;16.44;54.07;96330.99;1766428;81;20990;-64
2022/04/29 09:47:44;;;;;;;0.60;0.50;;;;;;;16.85;53.87;96320.88;1766391;81;20987;-64
2022/04/29 09:50:11;;;;;;;0.60;0.57;;;;;;;17.12;54.58;96324.06;1766445;81;20990;-64
2022/04/29 09:52:44;;;;;;;2.05;0.80;;;;;;;17.35;53.66;96322.83;1766115;81;21083;-64
2022/04/29 09:55:18;;;;;;;1.70;0.93;;;;;;;17.31;49.02;96329.17;1766516;81;21084;-64
2022/04/29 09:58:01;;;;;;;0.60;0.60;;;;;;;17.27;51.97;96323.55;1766225;81;21021;-64
2022/04/29 10:00:28;;;;;;;1.30;0.72;;;;;;;17.53;50.48;96319.52;1766336;81;21472;-64
2022/04/29 10:02:56;;;;;;;1.35;0.78;;;;;;;17.58;49.40;96328.70;1763280;81;21039;-64
2022/04/29 10:05:25;;;;;;;0.53;0.53;;;;;;;17.65;50.94;96324.04;1762510;81;21019;-64
2022/04/29 10:07:58;;;;;;;0.90;0.60;;;;;;;18.05;50.99;96315.98;1760915;81;21050;-64
2022/04/29 10:10:30;;;;;;;0.60;0.60;;;;;;;18.09;48.77;96315.82;1762460;81;21513;-65
2022/04/29 10:12:57;;;;;;;0.60;0.57;;;;;;;17.72;47.73;96320.23;1762514;81;21038;-64
2022/04/29 10:15:34;;;;;;;0.60;0.60;;;;;;;17.20;48.04;96329.53;1762318;81;20995;-64
2022/04/29 10:21:17;;;;;;;0.90;0.60;;;;;;;16.65;50.61;96326.80;1730432;81;21081;-64
2022/04/29 10:23:51;;;;;;;1.67;0.57;;;;;;;16.62;50.54;96318.03;1762643;81;21015;-64
2022/04/29 10:26:22;;;;;;;0.60;0.60;;;;;;;17.27;48.90;96315.08;1762667;81;21071;-65
2022/04/29 10:28:50;;;;;;;1.70;0.70;;;;;;;17.69;49.74;96305.20;1762472;81;21507;-64
2022/04/29 10:31:19;;;;;;;0.68;0.68;;;;;;;18.11;46.91;96302.39;1762496;81;21062;-64
2022/04/29 10:33:47;;;;;;;5.00;3.12;;;;;;;17.88;44.72;96308.58;1762251;81;21492;-65
2022/04/29 10:36:16;;;;;;;8.48;1.00;;;;;;;17.67;46.08;96308.38;1762402;81;20998;-64
2022/04/29 10:38:48;;;;;;;2.50;0.60;;;;;;;17.66;47.06;96306.63;1762460;81;21042;-65
2022/04/29 10:41:25;;;;;;;0.80;0.72;;;;;;;18.01;48.24;96302.33;1762549;81;21022;-65
2022/04/29 10:43:57;;;;;;;2.05;0.70;;;;;;;18.46;48.00;96294.38;1762705;81;20979;-65
2022/04/29 10:46:42;;;;;;;1.02;0.90;;;;;;;18.90;45.56;96303.84;1762303;81;21019;-65
2022/04/29 10:49:30;;;;;;;1.05;0.80;;;;;;;19.22;47.57;96300.30;1702648;81;21053;-64
2022/04/29 10:52:28;;;;;;;1.07;0.98;;;;;;;19.02;44.24;96296.66;1762137;81;21153;-64
2022/04/29 10:55:21;;;;;;;1.27;0.80;;;;;;;18.43;43.07;96296.31;1762269;81;21038;-64
2022/04/29 10:57:58;;;;;;;2.72;0.80;;;;;;;17.86;43.65;96305.95;1761817;81;20983;-65
2022/04/29 11:00:28;;;;;;;1.22;0.78;;;;;;;17.54;44.59;96304.41;1761946;81;21042;-64
2022/04/29 11:03:41;;;;;;;0.65;0.60;;;;;;;17.18;45.55;96301.17;1764913;81;21045;-64
2022/04/29 11:06:13;;;;;;;0.70;0.70;;;;;;;16.87;46.88;96301.72;1764558;81;21515;-64
2022/04/29 11:08:41;;;;;;;1.00;0.72;;;;;;;16.63;46.15;96307.78;1765924;81;20999;-64
2022/04/29 11:11:09;;;;;;;1.70;0.80;;;;;;;16.77;47.29;96304.70;1766362;81;21026;-64
2022/04/29 11:13:47;;;;;;;1.25;0.72;;;;;;;17.12;45.05;96298.73;1764946;81;21501;-64
2022/04/29 11:16:24;;;;;;;0.90;0.90;;;;;;;17.48;44.51;96290.80;1724608;81;21476;-64
2022/04/29 11:19:21;;;;;;;0.93;0.70;;;;;;;17.69;44.33;96297.66;1766386;81;21022;-64
2022/04/29 11:24:49;;;;;;;3.45;0.70;;;;;;;17.56;42.37;96291.86;1766635;81;21038;-64
2022/04/29 11:27:30;;;;;;;1.05;0.93;;;;;;;17.67;45.16;96300.38;1764645;81;21011;-64
2022/04/29 11:30:01;;;;;;;1.02;0.90;;;;;;;17.71;45.21;96298.45;1766003;81;21050;-65
2022/04/29 11:32:30;;;;;;;1.45;0.80;;;;;;;17.85;43.20;96292.67;1759798;81;21101;-64
2022/04/29 11:35:04;;;;;;;1.47;0.80;;;;;;;17.74;41.54;96289.89;1766257;81;21029;-65
2022/04/29 11:37:34;;;;;;;2.22;1.15;;;;;;;17.74;41.68;96285.89;1766404;81;21005;-65
2022/04/29 11:40:09;;;;;;;3.75;2.30;;;;;;;17.83;42.95;96281.17;1766447;81;21061;-65
2022/04/29 11:42:36;;;;;;;1.40;1.10;;;;;;;17.86;43.35;96285.06;1766387;81;21640;-64
2022/04/29 11:45:08;;;;;;;1.30;1.02;;;;;;;17.95;43.73;96281.59;1766273;81;21030;-65
2022/04/29 11:47:36;;;;;;;1.12;1.02;;;;;;;18.21;41.88;96287.77;1766414;81;20991;-65
2022/04/29 11:50:05;;;;;;;1.52;0.90;;;;;;;18.42;41.84;96271.84;1766354;81;20975;-64
2022/04/29 11:52:36;;;;;;;2.05;0.98;;;;;;;18.53;41.17;96280.33;1766351;81;21015;-65
2022/04/29 11:55:07;;;;;;;1.98;0.98;;;;;;;19.48;44.66;96272.91;1766308;81;21022;-65
2022/04/29 11:57:44;;;;;;;1.50;1.10;;;;;;;20.22;38.15;96260.70;1766407;81;21491;-65
2022/04/29 12:00:30;;;;;;;2.60;1.30;;;;;;;20.06;40.58;96264.56;1765729;81;20990;-65
2022/04/29 12:02:59;;;;;;;3.62;1.17;;;;;;;19.75;38.00;96265.05;1766383;81;21038;-65
2022/04/29 12:05:28;;;;;;;2.02;1.12;;;;;;;19.91;38.25;96257.67;1766349;81;21042;-64
2022/04/29 12:08:01;;;;;;;2.45;1.25;;;;;;;20.15;39.22;96255.22;1766108;81;21627;-65
2022/04/29 12:10:45;;;;;;;2.72;1.10;;;;;;;20.86;40.80;96249.23;1766416;81;21061;-65
2022/04/29 12:13:12;;;;;;;0.80;0.80;;;;;;;21.66;39.68;96246.11;1766108;81;21094;-65
2022/04/29 12:15:43;;;;;;;1.27;0.90;;;;;;;22.02;35.19;96250.03;1736539;81;21037;-65
2022/04/29 12:18:12;;;;;;;4.75;1.00;;;;;;;21.63;35.73;96244.08;1766326;81;21041;-65
2022/04/29 12:20:40;;;;;;;3.98;1.50;;;;;;;21.82;35.13;96244.83;1766486;81;20978;-65